ADDS METAR Data INFO
IDs: Format: Raw Decoded Include TAF

Data at: 1155 UTC 25 Jun 2018

KORG 251135Z AUTO 18009G14KT 10SM CLR 28/26 A3000 RMK AO2 T02760260
KORG 251115Z AUTO 18009KT 10SM SCT019 28/26 A3000 RMK AO2 T02760258
KORG 251055Z AUTO 18008KT 10SM SCT019 28/26 A2999 RMK AO2 T02750257
KORG 251035Z AUTO 19010KT 10SM SCT017 28/26 A2999 RMK AO2 T02770259
KORG 251015Z AUTO 18008G14KT 10SM SCT017 SCT024 28/26 A2999 RMK AO2 T02760260
KORG 250955Z AUTO 18010KT 10SM SCT019 SCT026 28/26 A2998 RMK AO2 T02750260
KORG 250935Z AUTO 18010G14KT 10SM SCT022 27/26 A2998 RMK AO2 T02720258
KORG 250915Z AUTO 17008KT 10SM SCT022 SCT028 SCT033 27/26 A2998 RMK AO2 T02720258
KORG 250855Z AUTO 18007KT 10SM SCT028 27/26 A2998 RMK AO2 60001 T02700258
KORG 250835Z AUTO 18005KT 10SM SCT023 SCT028 27/26 A2999 RMK AO2 T02700257
KORG 250815Z AUTO 18006KT 10SM CLR 27/26 A2998 RMK AO2 T02700258
KORG 250755Z AUTO 17007KT 10SM SCT019 27/26 A2998 RMK AO2 P0001 T02680260
KORG 250735Z AUTO 17005KT 10SM SCT019 27/26 A2999 RMK AO2 P0001 T02700260
KORG 250715Z AUTO 16005KT 10SM SCT019 SCT024 27/26 A2999 RMK AO2 P0001 T02690260
KORG 250655Z AUTO 17005KT 10SM SCT021 27/26 A3000 RMK AO2 T02700258
KORG 250635Z AUTO 17006KT 10SM SCT021 27/26 A3000 RMK AO2 T02690260
KORG 250615Z AUTO 18005KT 10SM SCT019 27/26 A3000 RMK AO2 T02700261
KORG 250555Z AUTO 17004KT 10SM SCT019 SCT029 27/26 A3000 RMK AO2 T02700262 10298 20265 403190265
KORG 250535Z AUTO 18004KT 10SM SCT019 SCT029 27/27 A2999 RMK AO2 T02720266
KORG 250515Z AUTO 17004KT 10SM BKN017 27/27 A2998 RMK AO2 T02700265
KORG 250455Z AUTO 16003KT 10SM SCT017 27/26 A2999 RMK AO2 T02710263
KORG 250435Z AUTO 16004KT 10SM CLR 27/26 A2998 RMK AO2 T02700263
KORG 250415Z AUTO 16004KT 10SM CLR 27/26 A2999 RMK AO2 T02700262
KORG 250355Z AUTO 15004KT 10SM SCT023 27/26 A2999 RMK AO2 T02710261
KORG 250335Z AUTO 16005KT 10SM SCT016 27/27 A2998 RMK AO2 T02700265
KORG 250315Z AUTO 17003KT 10SM CLR 27/26 A2998 RMK AO2 T02700264
KORG 250255Z AUTO 16004KT 10SM CLR 27/26 A2997 RMK AO2 T02680263
KORG 250235Z AUTO 18004KT 10SM CLR 27/26 A2997 RMK AO2 T02690262
KORG 250215Z AUTO 17003KT 10SM SCT022 SCT030 SCT039 27/26 A2998 RMK AO2 T02700258
KORG 250155Z AUTO 17005G08KT 7SM -RA SCT022 BKN041 OVC090 27/25 A2997 RMK AO2 LTG DSNT E T02690254
KORG 250135Z AUTO 14005KT 10SM SCT020 SCT025 SCT035 28/26 A2997 RMK AO2 T02820257
KORG 250115Z AUTO 00000KT 10SM SCT022 29/26 A2997 RMK AO2 T02850257
KORG 250055Z AUTO 18003KT 10SM SCT022 SCT033 29/26 A2996 RMK AO2 T02880257
KORG 250035Z AUTO 19006KT 10SM SCT022 SCT028 SCT035 30/26 A2996 RMK AO2 T02950256
KORG 250015Z AUTO 20006KT 10SM SCT024 30/26 A2995 RMK AO2 T02950255
KORG 242355Z AUTO 19009KT 10SM CLR 30/25 A2995 RMK AO2 T03000252 10319 20299
KORG 242335Z AUTO 17008KT 10SM SCT023 30/25 A2995 RMK AO2 T03010253
KORG 242315Z AUTO 18009KT 10SM CLR 31/25 A2994 RMK AO2 T03050254
KORG 242255Z AUTO 20008G15KT 10SM CLR 31/25 A2994 RMK AO2 T03070252
KORG 242235Z AUTO 20012G18KT 10SM CLR 31/25 A2994 RMK AO2 T03090253
KORG 242215Z AUTO 19013G19KT 10SM CLR 31/25 A2995 RMK AO2 T03100252
KORG 242155Z AUTO 18013G20KT 10SM SCT027 31/25 A2995 RMK AO2 T03110252
KORG 242135Z AUTO 18012G19KT 10SM CLR 31/25 A2996 RMK AO2 T03130253
KORG 242115Z AUTO 17010G18KT 10SM SCT027 31/26 A2997 RMK AO2 T03140259
KORG 242055Z AUTO 18011KT 10SM SCT027 32/26 A2997 RMK AO2 T03150258
KORG 242035Z AUTO 18013KT 10SM SCT027 32/26 A2998 RMK AO2 T03170259
KORG 242015Z AUTO 18013G20KT 10SM CLR 31/25 A2998 RMK AO2 T03140254
KORG 241955Z AUTO 20012G17KT 10SM CLR 32/26 A2998 RMK AO2 T03150256
KORG 241935Z AUTO 18013G19KT 10SM SCT027 32/25 A2998 RMK AO2 T03150252
KORG 241915Z AUTO 18012G18KT 10SM SCT025 32/26 A2997 RMK AO2 T03170260
KORG 241855Z AUTO 17012G21KT 10SM SCT025 31/26 A2998 RMK AO2 T03140261
KORG 241835Z AUTO 19013G16KT 10SM SCT025 32/26 A2999 RMK AO2 T03180261
KORG 241815Z AUTO 20011G17KT 10SM SCT025 SCT055 SCT065 32/26 A3000 RMK AO2 T03150261
KORG 241755Z AUTO 18012G15KT 10SM SCT025 SCT055 SCT065 32/26 A3000 RMK AO2 T03150260 10317 20280
KORG 241735Z AUTO 19009G14KT 10SM SCT025 SCT049 BKN055 32/26 A3000 RMK AO2 T03150260
KORG 241715Z AUTO 20010G15KT 10SM SCT025 SCT031 BKN050 31/26 A3000 RMK AO2 T03140259
KORG 241655Z AUTO 17010G16KT 10SM SCT025 SCT037 31/26 A2999 RMK AO2 T03120258
KORG 241635Z AUTO 18010KT 10SM SCT025 31/26 A2999 RMK AO2 T03100258
KORG 241615Z AUTO 17010G16KT 10SM BKN025 BKN034 31/26 A2998 RMK AO2 T03100256
KORG 241555Z AUTO 19012G15KT 10SM BKN025 BKN031 31/26 A2998 RMK AO2 T03090257
KORG 241535Z AUTO 19007KT 10SM BKN023 BKN029 31/26 A2998 RMK AO2 T03060258
KORG 241515Z AUTO 20009G16KT 10SM SCT025 30/25 A2997 RMK AO2 T03040252
KORG 241455Z AUTO 21010G17KT 10SM SCT025 30/25 A2997 RMK AO2 T03020251
KORG 241435Z AUTO 20010G18KT 10SM SCT023 30/25 A2995 RMK AO2 T03020250
KORG 241415Z AUTO 19010KT 10SM SCT021 SCT028 30/26 A2995 RMK AO2 LTG DSNT S T03000256
KORG 241355Z AUTO 20011G17KT 10SM SCT019 SCT026 30/26 A2994 RMK AO2 T02980259
KORG 241335Z AUTO 19012KT 10SM BKN019 OVC024 30/26 A2994 RMK AO2 T02960264
KORG 241315Z AUTO 20008G14KT 10SM SCT017 SCT024 SCT037 29/26 A2993 RMK AO2 T02890261
KORG 241255Z AUTO 19009G14KT 10SM CLR 29/26 A2993 RMK AO2 T02880260
KORG 241235Z AUTO 19007KT 10SM SCT018 29/26 A2993 RMK AO2 LTG DSNT S T02860261
KORG 241215Z AUTO 19008G14KT 10SM BKN018 BKN024 BKN060 28/26 A2993 RMK AO2 T02830261
KORG 241155Z AUTO 19007KT 10SM BKN018 BKN024 28/26 A2994 RMK AO2 60001 70002 T02800262 10280 20270
KORG 241135Z AUTO 20006KT 10SM BKN018 OVC024 28/26 A2993 RMK AO2 T02780262
KORG 241115Z AUTO 20007KT 10SM SCT019 BKN025 BKN031 28/26 A2993 RMK AO2 T02770261
KORG 241055Z AUTO 19007KT 10SM BKN017 28/26 A2992 RMK AO2 T02750261
KORG 241035Z AUTO 20004KT 10SM SCT017 BKN024 BKN045 27/26 A2993 RMK AO2 T02740261
KORG 241015Z AUTO 20006KT 10SM BKN019 BKN026 BKN031 28/26 A2992 RMK AO2 T02750258
KORG 240955Z AUTO 21008KT 10SM SCT019 28/26 A2992 RMK AO2 T02750255
KORG 240935Z AUTO 21006KT 10SM SCT021 28/25 A2992 RMK AO2 T02750254
KORG 240915Z AUTO 20009KT 10SM SCT018 28/26 A2992 RMK AO2 T02750255
KORG 240855Z AUTO 19007KT 10SM SCT018 28/26 A2992 RMK AO2 60001 T02760256
KORG 240835Z AUTO 19007KT 10SM SCT024 SCT029 28/26 A2992 RMK AO2 T02760255
KORG 240815Z AUTO 20007KT 10SM BKN023 BKN028 BKN034 28/26 A2993 RMK AO2 T02770256
KORG 240755Z AUTO 20011G14KT 10SM SCT019 BKN029 BKN043 28/26 A2994 RMK AO2 T02770255
KORG 240735Z AUTO 19009KT 10SM BKN019 BKN027 BKN032 28/26 A2994 RMK AO2 T02760255
KORG 240715Z AUTO 20009G15KT 10SM SCT019 SCT029 28/26 A2994 RMK AO2 T02760256
KORG 240655Z AUTO 19009G14KT 10SM SCT019 28/26 A2994 RMK AO2 P0001 T02750255
KORG 240635Z AUTO 18007KT 10SM BKN021 28/26 A2993 RMK AO2 P0001 T02750255
KORG 240615Z AUTO 18006KT 10SM SCT019 SCT025 27/26 A2992 RMK AO2 T02710255
KORG 240555Z AUTO 18006KT 10SM SCT019 27/26 A2991 RMK AO2 T02700255 10295 20267 403150263
KORG 240535Z AUTO 17007KT 10SM CLR 27/26 A2991 RMK AO2 T02700255
KORG 240515Z AUTO 17007KT 10SM CLR 27/26 A2990 RMK AO2 T02680257
KORG 240455Z AUTO 17006KT 10SM CLR 27/26 A2990 RMK AO2 T02680256
KORG 240435Z AUTO 17006KT 10SM CLR 27/26 A2990 RMK AO2 T02670255
KORG 240415Z AUTO 17005KT 10SM CLR 27/26 A2991 RMK AO2 T02700256
KORG 240355Z AUTO 17006KT 10SM SCT016 SCT022 27/26 A2991 RMK AO2 T02700258
KORG 240335Z AUTO 17006KT 10SM SCT016 SCT022 27/26 A2990 RMK AO2 T02700256
KORG 240315Z AUTO 17005KT 10SM CLR 27/26 A2990 RMK AO2 T02700255
KORG 240255Z AUTO 17005KT 10SM SCT018 27/26 A2989 RMK AO2 T02730255
KORG 240235Z AUTO 18006KT 10SM SCT018 SCT027 27/26 A2988 RMK AO2 T02740255
KORG 240215Z AUTO 17006KT 10SM SCT018 SCT027 28/26 A2988 RMK AO2 T02760255
KORG 240155Z AUTO 18005KT 7SM SCT020 SCT024 28/25 A2988 RMK AO2 T02770252
KORG 240135Z AUTO 17007KT 10SM BKN020 BKN031 28/25 A2988 RMK AO2 T02800251
KORG 240115Z AUTO 19008KT 10SM SCT020 SCT031 28/25 A2987 RMK AO2 T02810251
KORG 240055Z AUTO 19008KT 10SM SCT022 29/25 A2987 RMK AO2 T02850250
KORG 240035Z AUTO 19008KT 10SM SCT022 SCT028 29/25 A2987 RMK AO2 T02880250
KORG 240015Z AUTO 18010G16KT 10SM SCT022 SCT028 29/25 A2986 RMK AO2 T02910253